Time;durP1;ratioP1;P1;durP2;ratioP2;P2;SDS_P1;SDS_P2;PMS_P1;PMS_P2;Temp;Humidity;BMP_temperature;BMP_pressure;BME280_temperature;BME280_humidity;BME280_pressure;Samples;Min_cycle;Max_cycle;Signal;HPM_P1;HPM_P2
2023/10/11 00:01:46;;;;;;;22.88;6.70;;;;;;;;;;4994701;28;20347;-68
2023/10/11 00:04:23;;;;;;;17.83;6.82;;;;;;;;;;4995092;28;20026;-69
2023/10/11 00:06:49;;;;;;;22.42;8.75;;;;;;;;;;4994608;28;20029;-69
2023/10/11 00:09:16;;;;;;;17.58;6.57;;;;;;;;;;4994645;28;20023;-69
2023/10/11 00:11:41;;;;;;;16.08;6.90;;;;;;;;;;4994510;28;20045;-69
2023/10/11 00:14:07;;;;;;;20.10;7.27;;;;;;;;;;4994418;28;20391;-69
2023/10/11 00:16:35;;;;;;;18.15;7.45;;;;;;;;;;4993933;28;20688;-69
2023/10/11 00:19:00;;;;;;;20.90;7.55;;;;;;;;;;4994546;28;20018;-69
2023/10/11 00:21:40;;;;;;;18.10;7.85;;;;;;;;;;4994584;28;20435;-69
2023/10/11 00:24:07;;;;;;;17.30;7.80;;;;;;;;;;4994606;28;20078;-69
2023/10/11 00:26:34;;;;;;;18.98;7.68;;;;;;;;;;4994421;28;20363;-69
2023/10/11 00:29:00;;;;;;;23.10;7.63;;;;;;;;;;4987137;28;20406;-69
2023/10/11 00:31:25;;;;;;;20.60;7.82;;;;;;;;;;4994344;28;20026;-69
2023/10/11 00:33:53;;;;;;;19.17;7.67;;;;;;;;;;4993977;28;20027;-69
2023/10/11 00:36:24;;;;;;;19.45;6.85;;;;;;;;;;4994287;28;20022;-69
2023/10/11 00:38:51;;;;;;;20.30;7.87;;;;;;;;;;4994239;28;20062;-69
2023/10/11 00:41:19;;;;;;;22.85;7.60;;;;;;;;;;4994371;28;20322;-69
2023/10/11 00:43:52;;;;;;;18.23;7.10;;;;;;;;;;4994403;28;20363;-69
2023/10/11 00:46:37;;;;;;;20.13;7.88;;;;;;;;;;4994338;28;20034;-69
2023/10/11 00:49:12;;;;;;;22.63;7.60;;;;;;;;;;4993768;28;20454;-69
2023/10/11 00:51:38;;;;;;;21.27;8.80;;;;;;;;;;4994250;28;20018;-69
2023/10/11 00:54:07;;;;;;;17.52;8.00;;;;;;;;;;4993585;28;20021;-69
2023/10/11 00:56:32;;;;;;;27.90;9.25;;;;;;;;;;4993895;28;20105;-69
2023/10/11 00:58:58;;;;;;;17.07;7.50;;;;;;;;;;4993961;28;20150;-69
2023/10/11 01:01:23;;;;;;;20.10;7.47;;;;;;;;;;4986248;28;20268;-69
2023/10/11 01:03:49;;;;;;;18.38;7.85;;;;;;;;;;4993739;28;20030;-69
2023/10/11 01:06:15;;;;;;;17.52;7.75;;;;;;;;;;4993629;28;20034;-69
2023/10/11 01:08:41;;;;;;;14.13;6.47;;;;;;;;;;4993969;28;20018;-69
2023/10/11 01:11:08;;;;;;;17.73;7.78;;;;;;;;;;4993555;28;20051;-69
2023/10/11 01:13:33;;;;;;;22.90;7.60;;;;;;;;;;4993404;28;20490;-69
2023/10/11 01:15:59;;;;;;;21.52;8.15;;;;;;;;;;4993885;28;20046;-69
2023/10/11 01:18:24;;;;;;;16.97;7.00;;;;;;;;;;4993413;28;20429;-69
2023/10/11 01:20:51;;;;;;;21.50;7.17;;;;;;;;;;4992903;28;20260;-69
2023/10/11 01:23:16;;;;;;;21.17;7.05;;;;;;;;;;4994097;28;20390;-69
2023/10/11 01:25:42;;;;;;;16.27;6.95;;;;;;;;;;4993697;28;20021;-69
2023/10/11 01:28:07;;;;;;;18.83;7.55;;;;;;;;;;4993368;28;20045;-69
2023/10/11 01:30:32;;;;;;;24.27;7.03;;;;;;;;;;4993438;28;20025;-69
2023/10/11 01:32:58;;;;;;;18.98;7.65;;;;;;;;;;4993352;28;20046;-69
2023/10/11 01:35:23;;;;;;;28.70;8.17;;;;;;;;;;4993364;28;20026;-69
2023/10/11 01:37:49;;;;;;;16.75;7.25;;;;;;;;;;4993653;28;20521;-69
2023/10/11 01:40:20;;;;;;;19.20;7.25;;;;;;;;;;4993079;28;20056;-69
2023/10/11 01:42:51;;;;;;;15.55;7.13;;;;;;;;;;4993639;28;20050;-69
2023/10/11 01:45:17;;;;;;;21.58;6.95;;;;;;;;;;4993009;28;20038;-69
2023/10/11 01:47:43;;;;;;;18.98;6.10;;;;;;;;;;4993505;28;20014;-69
2023/10/11 01:50:08;;;;;;;15.20;7.05;;;;;;;;;;4993262;28;20030;-69
2023/10/11 01:52:34;;;;;;;18.42;7.32;;;;;;;;;;4993302;28;20390;-67
2023/10/11 01:55:00;;;;;;;20.95;6.78;;;;;;;;;;4993035;28;20486;-67
2023/10/11 01:57:25;;;;;;;16.77;7.60;;;;;;;;;;4993009;28;20022;-67
2023/10/11 01:59:52;;;;;;;21.42;6.63;;;;;;;;;;4993077;28;20065;-67
2023/10/11 02:02:17;;;;;;;14.70;7.15;;;;;;;;;;4993202;28;20026;-67
2023/10/11 02:04:42;;;;;;;18.10;6.68;;;;;;;;;;4992750;28;20080;-67
2023/10/11 02:07:07;;;;;;;22.83;7.43;;;;;;;;;;4992981;28;20038;-67
2023/10/11 02:09:33;;;;;;;17.67;7.17;;;;;;;;;;4992903;28;20045;-67
2023/10/11 02:11:58;;;;;;;17.45;6.60;;;;;;;;;;4992753;28;20364;-67
2023/10/11 02:14:24;;;;;;;24.05;7.03;;;;;;;;;;4993289;28;20467;-67
2023/10/11 02:16:50;;;;;;;17.25;6.28;;;;;;;;;;4992797;28;20022;-67
2023/10/11 02:19:15;;;;;;;22.25;7.07;;;;;;;;;;4993311;28;20029;-67
2023/10/11 02:21:44;;;;;;;20.38;6.70;;;;;;;;;;4992962;28;20030;-67
2023/10/11 02:24:09;;;;;;;15.90;7.50;;;;;;;;;;4993001;28;20049;-67
2023/10/11 02:26:34;;;;;;;13.88;6.63;;;;;;;;;;4992877;28;20478;-67
2023/10/11 02:29:06;;;;;;;18.30;6.75;;;;;;;;;;4992865;28;20018;-67
2023/10/11 02:31:33;;;;;;;16.40;6.47;;;;;;;;;;4985318;28;20109;-67
2023/10/11 02:34:12;;;;;;;22.42;7.57;;;;;;;;;;4992919;28;20026;-67
2023/10/11 02:36:38;;;;;;;20.65;6.38;;;;;;;;;;4985278;28;20441;-67
2023/10/11 02:39:06;;;;;;;13.77;6.32;;;;;;;;;;4993313;28;20057;-67
2023/10/11 02:41:32;;;;;;;24.45;6.70;;;;;;;;;;4996461;28;20105;-67
2023/10/11 02:43:57;;;;;;;15.52;6.70;;;;;;;;;;4996373;28;20428;-67
2023/10/11 02:46:23;;;;;;;17.05;6.47;;;;;;;;;;4995944;28;20069;-67
2023/10/11 02:48:49;;;;;;;18.27;5.97;;;;;;;;;;4996309;28;20022;-67
2023/10/11 02:51:24;;;;;;;15.35;6.13;;;;;;;;;;4996200;28;20386;-67
2023/10/11 02:53:50;;;;;;;12.82;5.93;;;;;;;;;;4989020;28;20030;-67
2023/10/11 02:56:15;;;;;;;16.23;5.85;;;;;;;;;;4996030;28;20030;-67
2023/10/11 02:58:41;;;;;;;15.75;6.65;;;;;;;;;;4996048;28;20109;-67
2023/10/11 03:01:16;;;;;;;16.20;6.07;;;;;;;;;;4996118;28;20022;-67
2023/10/11 03:03:42;;;;;;;14.95;6.25;;;;;;;;;;4996382;28;20120;-69
2023/10/11 03:06:08;;;;;;;13.45;5.85;;;;;;;;;;4996107;28;20106;-69
2023/10/11 03:08:33;;;;;;;24.48;5.90;;;;;;;;;;4995439;28;20015;-69
2023/10/11 03:10:59;;;;;;;19.85;6.32;;;;;;;;;;4995795;28;20061;-69
2023/10/11 03:13:29;;;;;;;17.63;5.95;;;;;;;;;;4995718;28;20026;-69
2023/10/11 03:16:01;;;;;;;20.85;6.95;;;;;;;;;;4994560;28;20471;-69
2023/10/11 03:18:27;;;;;;;14.87;6.20;;;;;;;;;;4995079;28;20023;-69
2023/10/11 03:21:06;;;;;;;13.52;6.07;;;;;;;;;;4995922;28;20022;-69
2023/10/11 03:23:32;;;;;;;14.95;6.30;;;;;;;;;;4995816;28;20391;-69
2023/10/11 03:26:00;;;;;;;18.08;6.30;;;;;;;;;;4995801;28;20022;-69
2023/10/11 03:28:26;;;;;;;23.38;7.07;;;;;;;;;;4995626;28;20517;-69
2023/10/11 03:30:52;;;;;;;16.80;6.50;;;;;;;;;;4995764;28;20018;-69
2023/10/11 03:33:17;;;;;;;15.45;6.05;;;;;;;;;;4995126;28;20058;-69
2023/10/11 03:35:44;;;;;;;14.98;5.93;;;;;;;;;;4995418;28;20022;-69
2023/10/11 03:38:32;;;;;;;13.57;5.50;;;;;;;;;;4995335;28;20034;-69
2023/10/11 03:41:15;;;;;;;17.17;7.22;;;;;;;;;;4989471;28;20029;-69
2023/10/11 03:43:41;;;;;;;18.33;6.07;;;;;;;;;;4995239;28;20498;-69
2023/10/11 03:46:15;;;;;;;16.75;5.70;;;;;;;;;;4995187;28;20030;-69
2023/10/11 03:48:56;;;;;;;18.80;7.00;;;;;;;;;;4994957;28;20153;-69
2023/10/11 03:51:22;;;;;;;17.42;6.40;;;;;;;;;;4989588;28;20471;-69
2023/10/11 03:53:47;;;;;;;14.95;6.05;;;;;;;;;;4994847;28;20026;-69
2023/10/11 03:56:13;;;;;;;13.35;6.05;;;;;;;;;;4995272;28;20034;-69
2023/10/11 03:58:38;;;;;;;17.95;6.03;;;;;;;;;;4994859;28;20026;-69
2023/10/11 04:01:11;;;;;;;16.63;6.33;;;;;;;;;;4995002;28;20390;-69
2023/10/11 04:03:39;;;;;;;19.10;6.10;;;;;;;;;;4995142;28;20256;-69
2023/10/11 04:06:13;;;;;;;17.65;5.88;;;;;;;;;;4994752;28;20030;-69
2023/10/11 04:08:41;;;;;;;17.33;6.13;;;;;;;;;;4994792;28;20101;-69
2023/10/11 04:11:14;;;;;;;16.85;6.85;;;;;;;;;;4994367;28;20047;-68
2023/10/11 04:13:41;;;;;;;15.05;5.65;;;;;;;;;;4994784;28;20018;-69
2023/10/11 04:16:07;;;;;;;17.70;5.63;;;;;;;;;;4994934;28;20490;-69
2023/10/11 04:18:33;;;;;;;18.30;7.53;;;;;;;;;;4994574;28;20105;-69
2023/10/11 04:21:14;;;;;;;17.00;6.53;;;;;;;;;;4994494;28;20578;-69
2023/10/11 04:23:39;;;;;;;17.52;6.68;;;;;;;;;;4994482;28;20461;-68
2023/10/11 04:26:21;;;;;;;21.10;6.33;;;;;;;;;;4994446;28;20023;-68
2023/10/11 04:28:47;;;;;;;17.73;6.38;;;;;;;;;;4994302;28;20256;-68
2023/10/11 04:31:28;;;;;;;13.30;6.20;;;;;;;;;;4994429;28;20023;-69
2023/10/11 04:33:54;;;;;;;16.02;5.63;;;;;;;;;;4994292;28;20402;-69
2023/10/11 04:36:20;;;;;;;10.88;4.88;;;;;;;;;;4994340;28;20049;-69
2023/10/11 04:38:47;;;;;;;16.90;5.82;;;;;;;;;;4993745;28;20022;-68
2023/10/11 04:41:16;;;;;;;16.02;6.70;;;;;;;;;;4994873;28;20064;-69
2023/10/11 04:43:50;;;;;;;12.13;5.68;;;;;;;;;;4994952;28;20058;-69
2023/10/11 04:46:15;;;;;;;12.68;5.57;;;;;;;;;;4994821;28;20378;-69
2023/10/11 04:48:41;;;;;;;12.77;4.93;;;;;;;;;;4994856;28;20010;-69
2023/10/11 04:51:21;;;;;;;15.60;4.93;;;;;;;;;;4994516;28;20022;-69
2023/10/11 04:53:54;;;;;;;10.40;4.78;;;;;;;;;;4994446;28;20089;-69
2023/10/11 04:59:16;;;;;;;13.07;5.50;;;;;;;;;;4994488;28;20382;-69
2023/10/11 05:04:17;;;;;;;15.00;6.13;;;;;;;;;;4994709;28;20018;-69
2023/10/11 05:06:43;;;;;;;13.75;5.68;;;;;;;;;;4994507;28;20045;-69
2023/10/11 05:09:21;;;;;;;13.23;6.78;;;;;;;;;;4994489;28;20019;-69
2023/10/11 05:11:50;;;;;;;11.23;4.90;;;;;;;;;;4994263;28;20042;-70
2023/10/11 05:14:36;;;;;;;17.08;6.20;;;;;;;;;;4994237;28;20018;-69
2023/10/11 05:22:35;;;;;;;13.82;6.15;;;;;;;;;;4994558;28;20022;-69
2023/10/11 05:30:11;;;;;;;15.93;6.80;;;;;;;;;;4994325;28;20105;-69
2023/10/11 05:32:50;;;;;;;22.98;6.80;;;;;;;;;;4994236;28;20073;-69
2023/10/11 05:51:43;;;;;;;16.65;6.18;;;;;;;;;;4993805;28;20052;-69
2023/10/11 05:54:09;;;;;;;12.35;5.25;;;;;;;;;;4993726;28;20015;-69
2023/10/11 05:56:38;;;;;;;21.98;7.38;;;;;;;;;;4993776;28;20018;-68
2023/10/11 05:59:03;;;;;;;12.93;5.47;;;;;;;;;;4993678;28;20068;-69
2023/10/11 06:01:29;;;;;;;16.73;6.32;;;;;;;;;;4993707;28;20054;-69
2023/10/11 06:03:55;;;;;;;16.23;5.85;;;;;;;;;;4993965;28;20026;-69
2023/10/11 06:06:32;;;;;;;18.25;6.15;;;;;;;;;;4993828;28;20030;-69
2023/10/11 06:08:57;;;;;;;18.25;5.68;;;;;;;;;;4993620;28;20022;-68
2023/10/11 06:11:28;;;;;;;18.15;6.43;;;;;;;;;;4993432;28;20081;-69
2023/10/11 06:13:54;;;;;;;12.15;6.35;;;;;;;;;;4994205;28;20018;-69
2023/10/11 06:16:22;;;;;;;26.17;6.67;;;;;;;;;;4997453;28;20152;-69
2023/10/11 06:18:56;;;;;;;13.45;5.68;;;;;;;;;;4997673;28;20045;-69
2023/10/11 06:21:55;;;;;;;12.45;5.55;;;;;;;;;;4997356;28;20027;-69
2023/10/11 06:24:09;;;;;;;20.42;6.13;;;;;;;;;;4997046;28;20058;-69
2023/10/11 06:29:03;;;;;;;17.50;6.15;;;;;;;;;;4997241;28;20385;-69
2023/10/11 06:31:39;;;;;;;14.15;6.00;;;;;;;;;;4997256;28;20024;-69
2023/10/11 06:34:15;;;;;;;16.10;6.22;;;;;;;;;;4997101;28;20049;-67
2023/10/11 06:36:41;;;;;;;14.98;5.82;;;;;;;;;;4995819;28;20033;-67
2023/10/11 06:39:29;;;;;;;13.70;5.97;;;;;;;;;;4997070;28;20022;-67
2023/10/11 06:41:51;;;;;;;15.85;6.35;;;;;;;;;;4996853;28;20026;-67
2023/10/11 06:44:18;;;;;;;18.65;6.40;;;;;;;;;;4996953;28;20546;-67
2023/10/11 06:46:46;;;;;;;21.35;6.05;;;;;;;;;;4997091;28;20026;-67
2023/10/11 06:49:14;;;;;;;19.70;5.45;;;;;;;;;;4996856;28;20014;-67
2023/10/11 06:51:41;;;;;;;20.05;6.40;;;;;;;;;;4996884;28;20015;-67
2023/10/11 06:54:06;;;;;;;19.88;5.90;;;;;;;;;;4996943;28;20525;-67
2023/10/11 06:56:32;;;;;;;18.05;6.32;;;;;;;;;;4996977;28;20027;-67
2023/10/11 06:59:00;;;;;;;17.90;6.20;;;;;;;;;;4996785;28;20145;-67
2023/10/11 07:01:30;;;;;;;15.88;6.07;;;;;;;;;;4996869;28;20455;-67
2023/10/11 07:03:56;;;;;;;24.08;7.13;;;;;;;;;;4996864;28;20096;-68
2023/10/11 07:06:22;;;;;;;21.27;6.75;;;;;;;;;;4996463;28;20031;-68
2023/10/11 07:08:50;;;;;;;22.50;7.45;;;;;;;;;;4996471;28;20385;-68
2023/10/11 07:11:41;;;;;;;27.45;8.23;;;;;;;;;;4996349;28;20066;-68
2023/10/11 07:14:14;;;;;;;24.83;8.10;;;;;;;;;;4996394;28;20026;-68
2023/10/11 07:16:41;;;;;;;24.05;9.27;;;;;;;;;;4996314;28;20058;-67
2023/10/11 07:19:09;;;;;;;27.05;7.97;;;;;;;;;;4996263;28;20034;-68
2023/10/11 07:21:53;;;;;;;32.53;10.77;;;;;;;;;;4996507;28;20539;-68
2023/10/11 07:24:33;;;;;;;24.85;10.05;;;;;;;;;;4996458;28;20030;-68
2023/10/11 07:27:07;;;;;;;22.73;10.10;;;;;;;;;;4996273;28;20096;-68
2023/10/11 07:29:35;;;;;;;21.88;9.30;;;;;;;;;;4996225;28;20022;-68
2023/10/11 07:32:00;;;;;;;30.95;12.05;;;;;;;;;;4996276;28;20054;-68
2023/10/11 07:34:25;;;;;;;26.47;10.73;;;;;;;;;;4996304;28;20026;-68
2023/10/11 07:36:50;;;;;;;34.33;11.03;;;;;;;;;;4995950;28;20256;-68
2023/10/11 07:39:20;;;;;;;26.27;10.33;;;;;;;;;;4995979;28;20105;-68
2023/10/11 07:41:48;;;;;;;21.35;8.85;;;;;;;;;;4995989;28;20287;-68
2023/10/11 07:44:16;;;;;;;24.13;9.32;;;;;;;;;;4994579;28;20030;-68
2023/10/11 07:46:43;;;;;;;27.80;7.65;;;;;;;;;;4995914;28;20491;-68
2023/10/11 07:49:14;;;;;;;33.28;7.57;;;;;;;;;;4995996;28;20037;-68
2023/10/11 07:51:39;;;;;;;29.00;8.70;;;;;;;;;;4995705;28;20022;-68
2023/10/11 07:54:07;;;;;;;28.60;7.13;;;;;;;;;;4995571;28;20390;-68
2023/10/11 07:56:38;;;;;;;25.23;6.68;;;;;;;;;;4995861;28;20649;-68
2023/10/11 07:59:09;;;;;;;23.73;6.13;;;;;;;;;;4995608;28;20054;-68
2023/10/11 08:01:42;;;;;;;20.88;6.53;;;;;;;;;;4995520;28;20475;-68
2023/10/11 08:04:11;;;;;;;28.67;6.60;;;;;;;;;;4995722;28;20098;-68
2023/10/11 08:06:40;;;;;;;20.67;6.00;;;;;;;;;;4995420;28;20035;-68
2023/10/11 08:09:06;;;;;;;28.65;6.22;;;;;;;;;;4995382;28;20391;-68
2023/10/11 08:11:44;;;;;;;28.88;5.72;;;;;;;;;;4995129;28;20050;-68
2023/10/11 08:14:15;;;;;;;27.85;6.75;;;;;;;;;;4995541;28;20026;-68
2023/10/11 08:16:41;;;;;;;26.00;6.47;;;;;;;;;;4995305;28;20065;-68
2023/10/11 08:19:07;;;;;;;20.52;6.43;;;;;;;;;;4995335;28;20045;-68
2023/10/11 08:21:32;;;;;;;24.50;6.00;;;;;;;;;;4995173;28;20102;-68
2023/10/11 08:23:57;;;;;;;20.50;6.13;;;;;;;;;;4995154;28;20022;-68
2023/10/11 08:26:24;;;;;;;28.67;5.50;;;;;;;;;;4994945;28;20031;-68
2023/10/11 08:28:50;;;;;;;25.17;5.63;;;;;;;;;;4995268;28;20022;-68
2023/10/11 08:31:26;;;;;;;23.08;5.57;;;;;;;;;;4995203;28;20529;-68
2023/10/11 08:33:53;;;;;;;17.98;4.95;;;;;;;;;;4994832;28;20109;-68
2023/10/11 08:36:18;;;;;;;19.17;6.22;;;;;;;;;;4994689;28;20022;-68
2023/10/11 08:38:44;;;;;;;23.27;5.80;;;;;;;;;;4994442;28;20026;-68
2023/10/11 08:41:09;;;;;;;22.13;6.40;;;;;;;;;;4995055;28;20023;-68
2023/10/11 08:43:34;;;;;;;19.40;5.70;;;;;;;;;;4995007;28;20050;-68
2023/10/11 08:46:02;;;;;;;19.30;6.15;;;;;;;;;;4994707;28;20070;-68
2023/10/11 08:48:28;;;;;;;28.95;5.65;;;;;;;;;;4994891;28;20467;-68
2023/10/11 08:50:54;;;;;;;30.00;6.13;;;;;;;;;;4994853;28;20149;-68
2023/10/11 08:53:24;;;;;;;23.48;5.82;;;;;;;;;;4994951;28;20022;-70
2023/10/11 08:55:58;;;;;;;21.70;6.40;;;;;;;;;;4994710;28;20049;-70
2023/10/11 08:58:27;;;;;;;18.10;5.00;;;;;;;;;;4994766;28;20096;-70
2023/10/11 09:00:55;;;;;;;23.00;5.53;;;;;;;;;;4994453;28;20029;-70
2023/10/11 09:03:23;;;;;;;19.85;5.85;;;;;;;;;;4994302;28;20049;-70
2023/10/11 09:05:58;;;;;;;23.27;5.45;;;;;;;;;;4994278;28;20110;-70
2023/10/11 09:08:27;;;;;;;27.15;5.80;;;;;;;;;;4994404;28;20022;-70
2023/10/11 09:11:14;;;;;;;20.52;5.45;;;;;;;;;;4994136;28;20042;-70
2023/10/11 09:13:39;;;;;;;22.40;5.57;;;;;;;;;;4994196;28;20038;-70
2023/10/11 09:16:12;;;;;;;18.17;5.43;;;;;;;;;;4994448;28;20026;-70
2023/10/11 09:18:38;;;;;;;22.00;5.20;;;;;;;;;;4994222;28;20023;-70
2023/10/11 09:21:15;;;;;;;17.95;4.93;;;;;;;;;;4994066;28;20085;-70
2023/10/11 09:23:46;;;;;;;23.95;5.30;;;;;;;;;;4994369;28;20038;-70
2023/10/11 09:26:13;;;;;;;16.33;4.93;;;;;;;;;;4994017;28;20109;-70
2023/10/11 09:28:40;;;;;;;15.77;4.90;;;;;;;;;;4994289;28;20463;-70
2023/10/11 09:31:10;;;;;;;22.15;5.03;;;;;;;;;;4993976;28;20049;-70
2023/10/11 09:33:36;;;;;;;19.25;4.80;;;;;;;;;;4993982;28;20425;-70
2023/10/11 09:36:06;;;;;;;25.55;5.15;;;;;;;;;;4993998;28;20062;-70
2023/10/11 09:38:38;;;;;;;26.77;6.30;;;;;;;;;;4993966;28;20033;-70
2023/10/11 09:41:07;;;;;;;18.40;5.32;;;;;;;;;;4994163;28;20018;-70
2023/10/11 09:43:36;;;;;;;19.00;4.57;;;;;;;;;;4993794;28;20027;-70
2023/10/11 09:46:03;;;;;;;24.15;5.15;;;;;;;;;;4993750;28;20474;-70
2023/10/11 09:48:29;;;;;;;24.05;6.03;;;;;;;;;;4994105;28;20025;-70
2023/10/11 09:50:57;;;;;;;19.00;4.75;;;;;;;;;;4997547;28;20410;-70
2023/10/11 09:53:25;;;;;;;22.92;5.50;;;;;;;;;;4997889;28;20071;-70
2023/10/11 09:55:56;;;;;;;18.10;4.97;;;;;;;;;;4997704;28;20035;-70
2023/10/11 09:58:21;;;;;;;15.07;5.43;;;;;;;;;;4998102;28;20058;-70
2023/10/11 10:01:08;;;;;;;21.20;4.73;;;;;;;;;;4998057;28;20098;-70
2023/10/11 10:03:38;;;;;;;20.77;5.43;;;;;;;;;;4990945;28;20241;-68
2023/10/11 10:06:19;;;;;;;23.60;5.90;;;;;;;;;;4997816;28;20080;-68
2023/10/11 10:09:16;;;;;;;19.75;4.30;;;;;;;;;;4997885;28;20057;-68
2023/10/11 10:12:05;;;;;;;21.55;4.70;;;;;;;;;;4993590;28;20046;-68
2023/10/11 10:14:33;;;;;;;17.80;4.18;;;;;;;;;;4997497;28;20033;-68
2023/10/11 10:17:19;;;;;;;15.15;5.22;;;;;;;;;;4997399;28;20023;-68
2023/10/11 10:19:48;;;;;;;22.02;5.25;;;;;;;;;;4997655;28;20501;-68
2023/10/11 10:22:17;;;;;;;19.33;4.85;;;;;;;;;;4997632;28;20019;-68
2023/10/11 10:24:43;;;;;;;16.30;5.03;;;;;;;;;;4996410;28;20490;-68
2023/10/11 10:27:33;;;;;;;17.45;5.47;;;;;;;;;;4997456;28;20373;-68
2023/10/11 10:29:59;;;;;;;25.67;5.75;;;;;;;;;;4997354;28;20010;-68
2023/10/11 10:32:25;;;;;;;19.75;5.45;;;;;;;;;;4997151;28;20029;-68
2023/10/11 10:35:11;;;;;;;16.80;4.82;;;;;;;;;;4997362;28;20022;-68
2023/10/11 10:37:45;;;;;;;18.58;5.28;;;;;;;;;;4997010;28;20105;-68
2023/10/11 10:40:27;;;;;;;13.85;4.45;;;;;;;;;;4997062;28;20026;-68
2023/10/11 10:43:08;;;;;;;20.40;5.25;;;;;;;;;;4997006;28;20478;-68
2023/10/11 10:45:34;;;;;;;23.73;4.65;;;;;;;;;;4997136;28;20031;-68
2023/10/11 10:48:13;;;;;;;16.48;4.35;;;;;;;;;;4997198;28;20022;-68
2023/10/11 10:50:48;;;;;;;18.85;4.93;;;;;;;;;;4996804;28;20018;-68
2023/10/11 10:53:16;;;;;;;17.40;4.78;;;;;;;;;;4996813;28;20015;-68
2023/10/11 10:55:45;;;;;;;16.83;4.90;;;;;;;;;;4996947;28;20478;-68
2023/10/11 10:58:17;;;;;;;19.15;4.20;;;;;;;;;;4996671;28;20105;-68
2023/10/11 11:00:43;;;;;;;13.90;4.70;;;;;;;;;;4996173;28;20041;-68
2023/10/11 11:03:23;;;;;;;25.50;5.47;;;;;;;;;;4996891;28;20033;-67
2023/10/11 11:05:56;;;;;;;22.48;4.22;;;;;;;;;;4996757;28;20497;-67
2023/10/11 11:08:25;;;;;;;30.63;5.57;;;;;;;;;;4996556;28;20073;-68
2023/10/11 11:10:59;;;;;;;16.83;4.10;;;;;;;;;;4996267;28;20108;-68
2023/10/11 11:13:27;;;;;;;19.90;4.43;;;;;;;;;;4996841;28;20018;-69
2023/10/11 11:15:55;;;;;;;20.05;5.03;;;;;;;;;;4996391;28;20490;-70
2023/10/11 11:18:33;;;;;;;17.58;4.40;;;;;;;;;;4996392;28;20022;-70
2023/10/11 11:21:17;;;;;;;19.70;4.85;;;;;;;;;;4996556;28;20068;-69
2023/10/11 11:23:44;;;;;;;16.73;4.88;;;;;;;;;;4996291;28;20021;-70
2023/10/11 11:26:15;;;;;;;29.67;5.00;;;;;;;;;;4996391;28;20386;-70
2023/10/11 11:28:41;;;;;;;21.30;5.72;;;;;;;;;;4996200;28;20027;-69
2023/10/11 11:31:51;;;;;;;21.60;5.10;;;;;;;;;;4996095;28;20109;-70
2023/10/11 11:34:14;;;;;;;15.52;4.45;;;;;;;;;;4993035;28;20387;-70
2023/10/11 11:36:43;;;;;;;18.85;4.45;;;;;;;;;;4996295;28;20494;-70
2023/10/11 11:39:25;;;;;;;20.05;5.78;;;;;;;;;;4996019;28;20029;-70
2023/10/11 11:41:53;;;;;;;14.88;4.80;;;;;;;;;;4995902;28;20026;-70
2023/10/11 11:44:21;;;;;;;18.30;4.13;;;;;;;;;;4996131;28;20509;-70
2023/10/11 11:46:48;;;;;;;15.40;4.63;;;;;;;;;;4996007;28;20390;-70
2023/10/11 11:49:15;;;;;;;18.17;4.68;;;;;;;;;;4995793;28;20585;-70
2023/10/11 11:51:40;;;;;;;25.73;4.97;;;;;;;;;;4995687;28;20081;-70
2023/10/11 11:54:08;;;;;;;12.88;4.88;;;;;;;;;;4995604;28;20119;-70
2023/10/11 11:56:34;;;;;;;13.30;3.60;;;;;;;;;;4995901;28;20038;-70
2023/10/11 11:59:00;;;;;;;17.80;4.88;;;;;;;;;;4995555;28;20022;-70
2023/10/11 12:01:26;;;;;;;25.85;5.60;;;;;;;;;;4995551;28;20101;-70
2023/10/11 12:03:54;;;;;;;12.48;4.10;;;;;;;;;;4995766;28;20151;-70
2023/10/11 12:06:24;;;;;;;14.30;4.57;;;;;;;;;;4995617;28;20463;-69
2023/10/11 12:08:59;;;;;;;14.45;4.60;;;;;;;;;;4995642;28;20383;-70
2023/10/11 12:11:30;;;;;;;16.67;4.22;;;;;;;;;;4994707;28;20472;-70
2023/10/11 12:13:56;;;;;;;21.40;4.72;;;;;;;;;;4995078;28;20045;-70
2023/10/11 12:16:22;;;;;;;22.85;5.57;;;;;;;;;;4995252;28;20116;-70
2023/10/11 12:18:47;;;;;;;14.30;4.43;;;;;;;;;;4995242;28;20068;-70
2023/10/11 12:21:15;;;;;;;22.98;4.90;;;;;;;;;;4995222;28;20453;-70
2023/10/11 12:23:46;;;;;;;21.33;5.25;;;;;;;;;;4995491;28;20114;-67
2023/10/11 12:26:12;;;;;;;20.48;5.05;;;;;;;;;;4995255;28;20033;-67
2023/10/11 12:28:38;;;;;;;19.17;4.50;;;;;;;;;;4995102;28;20026;-67
2023/10/11 12:31:03;;;;;;;15.00;3.95;;;;;;;;;;4995017;28;20022;-68
2023/10/11 12:33:30;;;;;;;24.27;4.67;;;;;;;;;;4995030;28;20018;-67
2023/10/11 12:35:56;;;;;;;29.15;4.88;;;;;;;;;;4995147;28;20035;-68
2023/10/11 12:38:21;;;;;;;16.97;4.23;;;;;;;;;;4994884;28;20544;-67
2023/10/11 12:40:47;;;;;;;16.47;4.43;;;;;;;;;;4994753;28;20248;-68
2023/10/11 12:43:13;;;;;;;21.85;4.78;;;;;;;;;;4994979;28;20624;-68
2023/10/11 12:45:42;;;;;;;16.52;4.63;;;;;;;;;;4994638;28;20018;-68
2023/10/11 12:48:07;;;;;;;14.95;4.50;;;;;;;;;;4994922;28;20033;-67
2023/10/11 12:50:36;;;;;;;22.37;4.93;;;;;;;;;;4994690;28;20101;-67
2023/10/11 12:53:02;;;;;;;21.42;4.57;;;;;;;;;;4994592;28;20240;-68
2023/10/11 12:55:27;;;;;;;19.70;4.43;;;;;;;;;;4994610;28;20493;-68
2023/10/11 12:57:53;;;;;;;14.77;4.78;;;;;;;;;;4994488;28;20041;-67
2023/10/11 13:00:37;;;;;;;18.52;4.85;;;;;;;;;;4994716;28;20037;-68
2023/10/11 13:03:15;;;;;;;21.90;4.30;;;;;;;;;;4994365;28;20042;-68
2023/10/11 13:05:43;;;;;;;25.40;5.13;;;;;;;;;;4994296;28;20120;-67
2023/10/11 13:08:11;;;;;;;23.50;5.53;;;;;;;;;;4994627;28;20502;-67
2023/10/11 13:10:36;;;;;;;19.65;4.38;;;;;;;;;;4994160;28;20038;-68
2023/10/11 13:13:08;;;;;;;21.60;4.82;;;;;;;;;;4994527;28;20029;-68
2023/10/11 13:15:34;;;;;;;20.83;4.50;;;;;;;;;;4994479;28;20422;-68
2023/10/11 13:17:59;;;;;;;15.93;4.10;;;;;;;;;;4994257;28;20025;-68
2023/10/11 13:20:31;;;;;;;29.33;3.60;;;;;;;;;;4994138;28;20259;-68
2023/10/11 13:22:56;;;;;;;18.02;3.90;;;;;;;;;;4994216;28;20475;-67
2023/10/11 13:25:24;;;;;;;20.40;4.40;;;;;;;;;;4994015;28;20068;-67
2023/10/11 13:27:54;;;;;;;23.63;4.40;;;;;;;;;;4994017;28;20050;-67
2023/10/11 13:30:22;;;;;;;20.55;5.25;;;;;;;;;;4994277;28;20077;-67
2023/10/11 13:32:49;;;;;;;16.48;3.90;;;;;;;;;;4994073;28;20025;-70
2023/10/11 13:35:14;;;;;;;19.58;4.80;;;;;;;;;;4993939;28;20018;-70
2023/10/11 13:37:46;;;;;;;25.75;4.93;;;;;;;;;;4993965;28;20029;-70
2023/10/11 13:40:11;;;;;;;20.08;4.72;;;;;;;;;;4993904;28;20042;-70
2023/10/11 13:42:37;;;;;;;17.65;4.35;;;;;;;;;;4994171;28;20057;-70
2023/10/11 13:45:03;;;;;;;15.68;4.00;;;;;;;;;;4994074;28;20127;-70
2023/10/11 13:47:33;;;;;;;22.10;4.45;;;;;;;;;;4993825;28;20093;-70
2023/10/11 13:49:59;;;;;;;15.90;4.47;;;;;;;;;;4993848;28;20060;-70
2023/10/11 13:52:24;;;;;;;14.73;4.07;;;;;;;;;;4994053;28;20025;-70
2023/10/11 13:54:51;;;;;;;24.97;3.83;;;;;;;;;;4993996;28;20379;-70
2023/10/11 13:57:21;;;;;;;15.00;3.92;;;;;;;;;;4993791;28;20030;-70
2023/10/11 13:59:47;;;;;;;15.93;3.97;;;;;;;;;;4993999;28;20023;-70
2023/10/11 14:05:13;;;;;;;17.35;3.83;;;;;;;;;;4994029;28;20030;-70
2023/10/11 14:07:49;;;;;;;16.38;4.32;;;;;;;;;;4993938;28;20026;-70
2023/10/11 14:10:16;;;;;;;16.90;4.25;;;;;;;;;;4993635;28;20051;-70
2023/10/11 14:12:42;;;;;;;21.00;4.55;;;;;;;;;;4993710;28;20393;-70
2023/10/11 14:15:11;;;;;;;16.38;4.20;;;;;;;;;;4993621;28;20018;-70
2023/10/11 14:17:39;;;;;;;20.23;3.50;;;;;;;;;;4993906;28;20073;-70
2023/10/11 14:20:05;;;;;;;19.02;4.07;;;;;;;;;;4993598;28;20080;-70
2023/10/11 14:22:32;;;;;;;17.33;4.45;;;;;;;;;;4993867;28;20011;-70
2023/10/11 14:24:59;;;;;;;15.45;4.18;;;;;;;;;;4993784;28;20364;-70
2023/10/11 14:27:24;;;;;;;15.18;4.15;;;;;;;;;;4993410;28;20026;-70
2023/10/11 14:29:50;;;;;;;15.30;3.97;;;;;;;;;;4993524;28;20025;-70
2023/10/11 14:32:16;;;;;;;24.40;4.80;;;;;;;;;;4993507;28;20030;-70
2023/10/11 14:34:43;;;;;;;27.58;4.47;;;;;;;;;;4993468;28;20018;-70
2023/10/11 14:37:08;;;;;;;18.92;3.70;;;;;;;;;;4997357;28;20470;-70
2023/10/11 14:39:36;;;;;;;18.80;4.55;;;;;;;;;;4997117;28;20033;-70
2023/10/11 14:42:02;;;;;;;19.17;4.15;;;;;;;;;;4997424;28;20072;-68
2023/10/11 14:44:27;;;;;;;16.13;4.18;;;;;;;;;;4997268;28;20030;-68
2023/10/11 14:46:52;;;;;;;16.63;5.00;;;;;;;;;;4996858;28;20463;-67
2023/10/11 14:49:21;;;;;;;17.43;4.37;;;;;;;;;;4996928;28;20686;-68
2023/10/11 14:51:47;;;;;;;20.95;4.78;;;;;;;;;;4997115;28;20105;-68
2023/10/11 14:54:12;;;;;;;23.55;4.30;;;;;;;;;;4997026;28;20423;-67
2023/10/11 14:56:38;;;;;;;26.15;4.55;;;;;;;;;;4997021;28;20029;-67
2023/10/11 14:59:03;;;;;;;20.45;3.95;;;;;;;;;;4995498;28;20069;-67
2023/10/11 15:01:33;;;;;;;18.27;4.30;;;;;;;;;;4996107;28;20022;-68
2023/10/11 15:04:00;;;;;;;20.95;4.47;;;;;;;;;;4995914;28;20041;-67
2023/10/11 15:06:25;;;;;;;17.27;4.50;;;;;;;;;;4996307;28;20033;-67
2023/10/11 15:08:51;;;;;;;22.50;3.80;;;;;;;;;;4986942;28;20284;-68
2023/10/11 15:11:19;;;;;;;22.13;4.13;;;;;;;;;;4991089;28;20315;-67
2023/10/11 15:13:44;;;;;;;13.68;4.45;;;;;;;;;;4991656;28;20018;-67
2023/10/11 15:16:13;;;;;;;14.57;3.73;;;;;;;;;;4985420;28;20045;-68
2023/10/11 15:18:39;;;;;;;21.27;4.22;;;;;;;;;;4987169;28;20035;-68